createdAt,value
2022-11-05T00:00:38.199Z,1.77
2022-11-05T00:05:58.605Z,3.38
2022-11-05T00:11:01.022Z,1.60
2022-11-05T00:16:21.393Z,1.70
2022-11-05T00:21:46.527Z,1.10
2022-11-05T00:26:49.866Z,1.20
2022-11-05T00:31:52.383Z,1.20
2022-11-05T00:36:56.809Z,1.13
2022-11-05T00:42:19.669Z,1.20
2022-11-05T00:47:43.600Z,1.27
2022-11-05T00:52:56.671Z,1.15
2022-11-05T00:58:12.928Z,1.67
2022-11-05T01:03:19.634Z,1.10
2022-11-05T01:08:25.366Z,1.10
2022-11-05T01:13:30.410Z,1.30
2022-11-05T01:18:34.752Z,1.58
2022-11-05T01:23:48.442Z,1.30
2022-11-05T01:28:52.487Z,1.08
2022-11-05T01:33:56.428Z,1.30
2022-11-05T01:39:02.040Z,1.27
2022-11-05T01:44:04.243Z,1.35
2022-11-05T01:49:16.698Z,1.13
2022-11-05T01:54:24.118Z,1.40
2022-11-05T01:59:36.717Z,1.20
2022-11-05T02:10:52.404Z,1.50
2022-11-05T02:16:18.716Z,1.50
2022-11-05T02:21:23.353Z,1.38
2022-11-05T02:26:35.021Z,1.40
2022-11-05T02:32:20.857Z,1.23
2022-11-05T02:37:48.930Z,1.40
2022-11-05T02:43:04.672Z,1.27
2022-11-05T02:48:37.179Z,1.35
2022-11-05T02:53:56.087Z,1.30
2022-11-05T02:58:58.355Z,1.35
2022-11-05T03:04:02.189Z,1.25
2022-11-05T03:09:30.867Z,1.35
2022-11-05T03:15:03.450Z,1.33
2022-11-05T03:20:25.856Z,1.30
2022-11-05T03:25:30.579Z,1.67
2022-11-05T03:30:35.697Z,1.20
2022-11-05T03:35:54.625Z,1.42
2022-11-05T03:41:01.648Z,1.10
2022-11-05T03:46:21.569Z,1.67
2022-11-05T03:51:42.673Z,1.45
2022-11-05T03:57:18.613Z,1.35
2022-11-05T04:02:30.646Z,1.05
2022-11-05T04:07:56.712Z,1.25
2022-11-05T04:13:20.478Z,1.20
2022-11-05T04:18:25.822Z,1.08
2022-11-05T04:23:49.674Z,1.10
2022-11-05T04:29:11.699Z,1.20
2022-11-05T04:34:22.268Z,1.45
2022-11-05T04:39:28.110Z,1.40
2022-11-05T04:44:44.159Z,1.10
2022-11-05T04:49:48.031Z,1.38
2022-11-05T04:54:49.940Z,1.50
2022-11-05T04:59:53.946Z,1.23
2022-11-05T05:04:58.391Z,1.35
2022-11-05T05:10:01.930Z,1.10
2022-11-05T05:15:07.053Z,1.40
2022-11-05T05:20:35.001Z,1.55
2022-11-05T05:25:41.906Z,1.98
2022-11-05T05:30:53.597Z,1.40
2022-11-05T05:36:11.508Z,3.22
2022-11-05T05:41:14.245Z,2.17
2022-11-05T05:46:25.882Z,1.92
2022-11-05T05:51:30.290Z,1.25
2022-11-05T06:01:53.021Z,1.48
2022-11-05T06:06:55.988Z,1.30
2022-11-05T06:12:04.333Z,1.15
2022-11-05T06:17:11.040Z,1.20
2022-11-05T06:22:18.724Z,1.60
2022-11-05T06:27:34.883Z,1.55
2022-11-05T06:32:40.129Z,1.38
2022-11-05T06:37:45.603Z,1.58
2022-11-05T06:42:54.140Z,1.65
2022-11-05T06:48:00.894Z,1.30
2022-11-05T06:53:05.522Z,2.33
2022-11-05T06:58:10.052Z,2.00
2022-11-05T07:03:13.939Z,1.30
2022-11-05T07:08:19.739Z,1.83
2022-11-05T07:13:27.679Z,1.45
2022-11-05T07:18:32.393Z,1.63
2022-11-05T07:23:37.090Z,1.65
2022-11-05T07:28:41.330Z,1.50
2022-11-05T07:33:43.260Z,1.27
2022-11-05T07:38:48.998Z,1.30
2022-11-05T07:43:59.714Z,1.55
2022-11-05T07:49:09.699Z,1.50
2022-11-05T07:54:14.198Z,1.75
2022-11-05T07:59:19.022Z,1.50
2022-11-05T08:04:21.632Z,1.90
2022-11-05T08:09:32.579Z,1.70
2022-11-05T08:14:40.608Z,1.63
2022-11-05T08:19:45.758Z,1.33
2022-11-05T08:24:49.467Z,1.73
2022-11-05T08:29:53.131Z,1.42
2022-11-05T08:34:55.730Z,1.60
2022-11-05T08:40:02.000Z,1.33
2022-11-05T08:45:09.608Z,1.95
2022-11-05T08:50:12.839Z,1.75
2022-11-05T08:55:19.435Z,1.50
2022-11-05T09:00:28.218Z,1.63
2022-11-05T09:05:37.991Z,1.30
2022-11-05T09:10:42.099Z,1.90
2022-11-05T09:15:52.261Z,1.55
2022-11-05T09:21:01.131Z,1.48
2022-11-05T09:26:03.338Z,1.42
2022-11-05T09:31:17.784Z,1.70
2022-11-05T09:36:22.553Z,1.60
2022-11-05T09:41:57.841Z,1.77
2022-11-05T09:52:49.766Z,1.80
2022-11-05T10:03:35.272Z,2.28
2022-11-05T10:08:44.147Z,2.00
2022-11-05T10:13:50.761Z,2.20
2022-11-05T10:19:04.870Z,2.00
2022-11-05T10:24:20.360Z,1.48
2022-11-05T10:29:34.617Z,1.55
2022-11-05T10:34:45.025Z,1.63
2022-11-05T10:39:49.160Z,1.80
2022-11-05T10:45:29.642Z,1.30
2022-11-05T10:50:40.574Z,1.67
2022-11-05T10:55:49.120Z,1.43
2022-11-05T11:01:08.661Z,1.50
2022-11-05T11:06:32.606Z,1.65
2022-11-05T11:11:43.865Z,1.45
2022-11-05T11:16:50.830Z,1.23
2022-11-05T11:22:11.523Z,1.35
2022-11-05T11:27:39.593Z,1.92
2022-11-05T11:32:46.297Z,1.40
2022-11-05T11:37:57.032Z,1.20
2022-11-05T11:43:30.822Z,4.03
2022-11-05T11:48:36.197Z,2.28
2022-11-05T11:53:52.430Z,1.90
2022-11-05T11:58:57.857Z,1.95
2022-11-05T12:04:21.822Z,2.17
2022-11-05T12:10:00.260Z,1.80
2022-11-05T12:15:40.660Z,2.20
2022-11-05T12:21:15.409Z,2.30
2022-11-05T12:26:45.471Z,1.85
2022-11-05T12:32:03.850Z,2.05
2022-11-05T12:37:34.856Z,3.05
2022-11-05T12:43:11.452Z,2.53
2022-11-05T12:48:41.200Z,2.03
2022-11-05T12:54:08.147Z,1.90
2022-11-05T12:59:45.348Z,1.48
2022-11-05T13:05:01.161Z,1.88
2022-11-05T13:10:16.471Z,2.67
2022-11-05T13:15:29.636Z,2.00
2022-11-05T13:25:50.321Z,2.90
2022-11-05T13:31:10.084Z,1.90
2022-11-05T13:36:48.385Z,1.65
2022-11-05T13:42:28.695Z,1.15
2022-11-05T13:48:23.067Z,1.48
2022-11-05T13:53:58.323Z,1.60
2022-11-05T13:59:31.671Z,2.28
2022-11-05T14:05:10.255Z,1.48
2022-11-05T14:10:40.471Z,1.50
2022-11-05T14:16:20.478Z,1.75
2022-11-05T14:21:29.662Z,1.30
2022-11-05T14:26:34.399Z,2.60
2022-11-05T14:32:11.535Z,1.88
2022-11-05T14:37:13.599Z,2.97
2022-11-05T14:42:31.730Z,3.70
2022-11-05T14:47:53.654Z,2.70
2022-11-05T14:53:09.169Z,1.90
2022-11-05T14:58:40.644Z,1.42
2022-11-05T15:04:19.790Z,2.42
2022-11-05T15:09:36.381Z,1.48
2022-11-05T15:15:03.644Z,1.63
2022-11-05T15:20:21.810Z,2.00
2022-11-05T15:25:54.317Z,1.45
2022-11-05T15:36:35.142Z,1.20
2022-11-05T15:41:39.812Z,1.30
2022-11-05T15:46:43.520Z,1.08
2022-11-05T15:51:50.184Z,1.45
2022-11-05T15:56:57.034Z,1.35
2022-11-05T16:02:29.409Z,1.42
2022-11-05T16:07:36.365Z,1.17
2022-11-05T16:12:40.688Z,1.08
2022-11-05T16:17:49.581Z,1.20
2022-11-05T16:22:59.397Z,1.45
2022-11-05T16:28:07.646Z,1.75
2022-11-05T16:33:19.728Z,1.35
2022-11-05T16:38:26.446Z,1.20
2022-11-05T16:48:48.400Z,2.03
2022-11-05T16:54:16.829Z,1.73
2022-11-05T16:59:23.248Z,1.60
2022-11-05T17:04:26.811Z,1.15
2022-11-05T17:09:45.519Z,1.52
2022-11-05T17:14:49.305Z,1.80
2022-11-05T17:19:51.183Z,1.50
2022-11-05T17:25:00.654Z,1.70
2022-11-05T17:30:10.668Z,2.20
2022-11-05T17:35:14.409Z,1.80
2022-11-05T17:40:30.670Z,1.90
2022-11-05T17:45:41.174Z,1.80
2022-11-05T17:50:53.813Z,2.50
2022-11-05T17:56:03.145Z,2.40
2022-11-05T18:01:08.650Z,2.10
2022-11-05T18:06:13.971Z,2.25
2022-11-05T18:11:15.880Z,2.00
2022-11-05T18:21:26.268Z,2.30
2022-11-05T18:26:32.142Z,2.53
2022-11-05T18:32:01.512Z,2.42
2022-11-05T18:37:08.412Z,3.13
2022-11-05T18:42:19.458Z,3.22
2022-11-05T18:47:27.559Z,3.78
2022-11-05T18:52:36.763Z,3.75
2022-11-05T18:57:45.018Z,4.03
2022-11-05T19:02:48.449Z,3.78
2022-11-05T19:07:51.021Z,4.22
2022-11-05T19:12:54.403Z,3.70
2022-11-05T19:17:56.605Z,3.00
2022-11-05T19:23:01.215Z,3.17
2022-11-05T19:28:13.077Z,4.22
2022-11-05T19:33:19.608Z,3.88
2022-11-05T19:38:27.600Z,3.72
2022-11-05T19:43:33.889Z,4.15
2022-11-05T19:48:39.702Z,3.75
2022-11-05T19:53:42.793Z,3.08
2022-11-05T19:59:07.231Z,2.95
2022-11-05T20:04:12.011Z,3.30
2022-11-05T20:09:22.879Z,3.08
2022-11-05T20:19:31.019Z,3.10
2022-11-05T20:24:34.888Z,3.70
2022-11-05T20:29:49.661Z,3.70
2022-11-05T20:34:58.442Z,4.07
2022-11-05T20:40:04.702Z,4.25
2022-11-05T20:45:08.259Z,4.00
2022-11-05T20:50:15.721Z,3.53
2022-11-05T20:55:18.109Z,3.72
2022-11-05T21:00:27.105Z,3.55
2022-11-05T21:05:35.319Z,4.05
2022-11-05T21:10:50.135Z,3.92
2022-11-05T21:16:04.671Z,3.50
2022-11-05T21:21:14.675Z,3.50
2022-11-05T21:26:19.262Z,3.38
2022-11-05T21:31:35.761Z,3.25
2022-11-05T21:36:40.874Z,3.63
2022-11-05T21:41:42.857Z,3.65
2022-11-05T21:52:08.180Z,3.30
2022-11-05T21:57:36.497Z,4.00
2022-11-05T22:02:44.611Z,3.95
2022-11-05T22:07:53.847Z,3.55
2022-11-05T22:12:57.156Z,4.13
2022-11-05T22:18:06.515Z,4.55
2022-11-05T22:23:11.561Z,4.57
2022-11-05T22:28:28.635Z,3.97
2022-11-05T22:33:33.803Z,3.63
2022-11-05T22:38:36.320Z,3.58
2022-11-05T22:43:41.412Z,4.00
2022-11-05T22:48:50.763Z,4.03
2022-11-05T22:54:06.938Z,3.28
2022-11-05T22:59:13.348Z,3.78
2022-11-05T23:04:15.984Z,3.20
2022-11-05T23:09:48.528Z,3.28
2022-11-05T23:15:03.267Z,3.00
2022-11-05T23:20:30.739Z,3.22
2022-11-05T23:25:35.214Z,2.95
2022-11-05T23:31:09.410Z,2.97
2022-11-05T23:36:33.709Z,3.17
2022-11-05T23:41:55.150Z,3.08
2022-11-05T23:47:17.142Z,2.63
2022-11-05T23:52:21.944Z,3.40
2022-11-05T23:57:28.931Z,2.92
